TJPS

Details ICAO TJPS (PSE)
Name Ponce/Mercedita
Region USA (Puerto Rico)
Timezone America/Puerto_Rico (UTC-4.0)
Plans Departing 36
Arriving 22
Stats Elevation 29 ft / 9 m (AMSL)
Location 18.008312° -66.563014°
Runways 1
Magnetic Variation 12.954° W
Sunrise 2017-12-12 10:49:32 UTC / 2017-12-12 06:49:32 Local
Sunset 2017-12-12 21:53:27 UTC / 2017-12-12 17:53:27 Local
Advertisement - Login to hide

Runways

ID Width Length Bearing (true) Bearing (mag) Surface Threshold Offset Overrun Length
12 151 ft / 46 m 6,900 ft / 2,103 m 108.03° 120.98° Asphalt 787 ft / 240 m 200 ft / 61 m
30 151 ft / 46 m 6,900 ft / 2,103 m 288.03° 300.98° Asphalt 226 ft / 69 m 0 ft / 0 m

Map

Weather


0- 5 10 15 20 25 30 35+ Temperature / ° C

Clouds and Precipitation
Forecast for 2017-12-13 06:00 UTC. Updated an hour ago

Ground ~20,000 ft ~40,000 ft Winds

METAR

Not found

TAF

TAF TJPS 122320Z 1300/1324 05005KT P6SM FEW060 FM131400 18008KT P6SM FEW030 FM132200 15005KT P6SM FEW025 AMD NOT SKED TIL 130300

Frequencies

Unicom 122.70 MHz CTAF/UNICOM
Approach 118.75 MHz SAN JUAN CNTR
Clearance 121.90 MHz CLNC DEL
Warning: Do not use this data for real-world aviation or navigation. No guarantee of current accuracy is given.